sensor_id;sensor_type;location;lat;lon;timestamp;temperature;humidity
14347;DHT22;7257;52.158;9.968;2022-10-13T00:00:14;11.40;99.90
14347;DHT22;7257;52.158;9.968;2022-10-13T00:00:37;11.40;99.90
14347;DHT22;7257;52.158;9.968;2022-10-13T00:00:58;11.40;99.90
14347;DHT22;7257;52.158;9.968;2022-10-13T00:01:21;11.40;99.90
14347;DHT22;7257;52.158;9.968;2022-10-13T00:01:43;11.40;99.90
14347;DHT22;7257;52.158;9.968;2022-10-13T00:02:04;11.40;99.90
14347;DHT22;7257;52.158;9.968;2022-10-13T00:02:25;11.40;99.90
14347;DHT22;7257;52.158;9.968;2022-10-13T00:02:45;11.40;99.90
14347;DHT22;7257;52.158;9.968;2022-10-13T00:03:07;11.40;99.90
14347;DHT22;7257;52.158;9.968;2022-10-13T00:03:29;11.40;99.90
14347;DHT22;7257;52.158;9.968;2022-10-13T00:03:50;11.40;99.90
14347;DHT22;7257;52.158;9.968;2022-10-13T00:04:12;11.40;99.90
14347;DHT22;7257;52.158;9.968;2022-10-13T00:04:35;11.40;99.90
14347;DHT22;7257;52.158;9.968;2022-10-13T00:04:57;11.40;99.90
14347;DHT22;7257;52.158;9.968;2022-10-13T00:05:18;11.40;99.90
14347;DHT22;7257;52.158;9.968;2022-10-13T00:05:40;11.40;99.90
14347;DHT22;7257;52.158;9.968;2022-10-13T00:06:04;11.40;99.90
14347;DHT22;7257;52.158;9.968;2022-10-13T00:06:26;11.40;99.90
14347;DHT22;7257;52.158;9.968;2022-10-13T00:06:47;11.40;99.90
14347;DHT22;7257;52.158;9.968;2022-10-13T00:07:08;11.40;99.90
14347;DHT22;7257;52.158;9.968;2022-10-13T00:07:29;11.40;99.90
14347;DHT22;7257;52.158;9.968;2022-10-13T00:07:50;11.40;99.90
14347;DHT22;7257;52.158;9.968;2022-10-13T00:08:12;11.40;99.90
14347;DHT22;7257;52.158;9.968;2022-10-13T00:08:35;11.40;99.90
14347;DHT22;7257;52.158;9.968;2022-10-13T00:08:58;11.40;99.90
14347;DHT22;7257;52.158;9.968;2022-10-13T00:09:19;11.40;99.90
14347;DHT22;7257;52.158;9.968;2022-10-13T00:09:41;11.40;99.90
14347;DHT22;7257;52.158;9.968;2022-10-13T00:10:02;11.40;99.90
14347;DHT22;7257;52.158;9.968;2022-10-13T00:10:24;11.40;99.90
14347;DHT22;7257;52.158;9.968;2022-10-13T00:10:46;11.40;99.90
14347;DHT22;7257;52.158;9.968;2022-10-13T00:11:12;11.40;99.90
14347;DHT22;7257;52.158;9.968;2022-10-13T00:11:34;11.40;99.90
14347;DHT22;7257;52.158;9.968;2022-10-13T00:11:56;11.40;99.90
14347;DHT22;7257;52.158;9.968;2022-10-13T00:12:17;11.40;99.90
14347;DHT22;7257;52.158;9.968;2022-10-13T00:12:38;11.40;99.90
14347;DHT22;7257;52.158;9.968;2022-10-13T00:12:59;11.40;99.90
14347;DHT22;7257;52.158;9.968;2022-10-13T00:13:21;11.40;99.90
14347;DHT22;7257;52.158;9.968;2022-10-13T00:13:42;11.40;99.90
14347;DHT22;7257;52.158;9.968;2022-10-13T00:14:04;11.40;99.90
14347;DHT22;7257;52.158;9.968;2022-10-13T00:14:25;11.40;99.90
14347;DHT22;7257;52.158;9.968;2022-10-13T00:14:48;11.40;99.90
14347;DHT22;7257;52.158;9.968;2022-10-13T00:15:09;11.40;99.90
14347;DHT22;7257;52.158;9.968;2022-10-13T00:15:30;11.40;99.90
14347;DHT22;7257;52.158;9.968;2022-10-13T00:15:51;11.40;99.90
14347;DHT22;7257;52.158;9.968;2022-10-13T00:16:15;11.40;99.90
14347;DHT22;7257;52.158;9.968;2022-10-13T00:16:36;11.30;99.90
14347;DHT22;7257;52.158;9.968;2022-10-13T00:16:57;11.40;99.90
14347;DHT22;7257;52.158;9.968;2022-10-13T00:17:18;11.40;99.90
14347;DHT22;7257;52.158;9.968;2022-10-13T00:17:40;11.40;99.90
14347;DHT22;7257;52.158;9.968;2022-10-13T00:18:01;11.30;99.90
14347;DHT22;7257;52.158;9.968;2022-10-13T00:18:22;11.40;99.90
14347;DHT22;7257;52.158;9.968;2022-10-13T00:18:44;11.30;99.90
14347;DHT22;7257;52.158;9.968;2022-10-13T00:19:05;11.40;99.90
14347;DHT22;7257;52.158;9.968;2022-10-13T00:19:26;11.30;99.90
14347;DHT22;7257;52.158;9.968;2022-10-13T00:19:47;11.40;99.90
14347;DHT22;7257;52.158;9.968;2022-10-13T00:20:09;11.30;99.90
14347;DHT22;7257;52.158;9.968;2022-10-13T00:20:30;11.40;99.90
14347;DHT22;7257;52.158;9.968;2022-10-13T00:20:52;11.40;99.90
14347;DHT22;7257;52.158;9.968;2022-10-13T00:21:15;11.30;99.90
14347;DHT22;7257;52.158;9.968;2022-10-13T00:21:36;11.30;99.90
14347;DHT22;7257;52.158;9.968;2022-10-13T00:21:58;11.30;99.90
14347;DHT22;7257;52.158;9.968;2022-10-13T00:22:19;11.30;99.90
14347;DHT22;7257;52.158;9.968;2022-10-13T00:22:40;11.30;99.90
14347;DHT22;7257;52.158;9.968;2022-10-13T00:23:01;11.40;99.90
14347;DHT22;7257;52.158;9.968;2022-10-13T00:23:22;11.40;99.90
14347;DHT22;7257;52.158;9.968;2022-10-13T00:23:44;11.30;99.90
14347;DHT22;7257;52.158;9.968;2022-10-13T00:24:09;11.30;99.90
14347;DHT22;7257;52.158;9.968;2022-10-13T00:24:30;11.30;99.90
14347;DHT22;7257;52.158;9.968;2022-10-13T00:24:51;11.30;99.90
14347;DHT22;7257;52.158;9.968;2022-10-13T00:25:14;11.40;99.90
14347;DHT22;7257;52.158;9.968;2022-10-13T00:25:39;11.40;99.90
14347;DHT22;7257;52.158;9.968;2022-10-13T00:26:03;11.40;99.90
14347;DHT22;7257;52.158;9.968;2022-10-13T00:26:24;11.40;99.90
14347;DHT22;7257;52.158;9.968;2022-10-13T00:26:48;11.30;99.90
14347;DHT22;7257;52.158;9.968;2022-10-13T00:27:09;11.30;99.90
14347;DHT22;7257;52.158;9.968;2022-10-13T00:27:30;11.40;99.90
14347;DHT22;7257;52.158;9.968;2022-10-13T00:27:51;11.40;92.80
14347;DHT22;7257;52.158;9.968;2022-10-13T00:28:13;11.40;99.90
14347;DHT22;7257;52.158;9.968;2022-10-13T00:28:36;11.40;99.90
14347;DHT22;7257;52.158;9.968;2022-10-13T00:28:57;11.40;99.90
14347;DHT22;7257;52.158;9.968;2022-10-13T00:29:18;11.40;99.90
14347;DHT22;7257;52.158;9.968;2022-10-13T00:29:39;11.30;99.90
14347;DHT22;7257;52.158;9.968;2022-10-13T00:30:01;11.30;99.90
14347;DHT22;7257;52.158;9.968;2022-10-13T00:30:23;11.40;99.90
14347;DHT22;7257;52.158;9.968;2022-10-13T00:30:44;11.40;99.90
14347;DHT22;7257;52.158;9.968;2022-10-13T00:31:14;11.40;99.90
14347;DHT22;7257;52.158;9.968;2022-10-13T00:31:35;11.30;99.90
14347;DHT22;7257;52.158;9.968;2022-10-13T00:31:57;11.30;99.90
14347;DHT22;7257;52.158;9.968;2022-10-13T00:32:18;11.30;99.90
14347;DHT22;7257;52.158;9.968;2022-10-13T00:32:39;11.30;99.90
14347;DHT22;7257;52.158;9.968;2022-10-13T00:33:00;11.30;99.90
14347;DHT22;7257;52.158;9.968;2022-10-13T00:33:20;11.30;99.90
14347;DHT22;7257;52.158;9.968;2022-10-13T00:33:42;11.30;99.90
14347;DHT22;7257;52.158;9.968;2022-10-13T00:34:03;11.30;99.90
14347;DHT22;7257;52.158;9.968;2022-10-13T00:34:24;11.30;99.90
14347;DHT22;7257;52.158;9.968;2022-10-13T00:34:45;11.30;99.90
14347;DHT22;7257;52.158;9.968;2022-10-13T00:35:07;11.30;99.90
14347;DHT22;7257;52.158;9.968;2022-10-13T00:35:28;11.40;99.90
14347;DHT22;7257;52.158;9.968;2022-10-13T00:35:50;11.30;99.90
14347;DHT22;7257;52.158;9.968;2022-10-13T00:36:10;11.30;99.90
14347;DHT22;7257;52.158;9.968;2022-10-13T00:36:31;11.40;99.90
14347;DHT22;7257;52.158;9.968;2022-10-13T00:36:53;11.40;99.90
14347;DHT22;7257;52.158;9.968;2022-10-13T00:37:14;11.40;99.90
14347;DHT22;7257;52.158;9.968;2022-10-13T00:37:35;11.40;99.90
14347;DHT22;7257;52.158;9.968;2022-10-13T00:37:56;11.40;99.90
14347;DHT22;7257;52.158;9.968;2022-10-13T00:38:18;11.40;99.90
14347;DHT22;7257;52.158;9.968;2022-10-13T00:38:40;11.40;99.90
14347;DHT22;7257;52.158;9.968;2022-10-13T00:39:01;11.40;99.90
14347;DHT22;7257;52.158;9.968;2022-10-13T00:39:22;11.40;99.90
14347;DHT22;7257;52.158;9.968;2022-10-13T00:39:43;11.40;99.90
14347;DHT22;7257;52.158;9.968;2022-10-13T00:40:04;11.40;99.90
14347;DHT22;7257;52.158;9.968;2022-10-13T00:40:27;11.40;99.90
14347;DHT22;7257;52.158;9.968;2022-10-13T00:40:49;11.40;99.90
14347;DHT22;7257;52.158;9.968;2022-10-13T00:41:10;11.40;99.90
14347;DHT22;7257;52.158;9.968;2022-10-13T00:41:31;11.50;99.90
14347;DHT22;7257;52.158;9.968;2022-10-13T00:41:52;11.40;99.90
14347;DHT22;7257;52.158;9.968;2022-10-13T00:42:15;11.40;99.90
14347;DHT22;7257;52.158;9.968;2022-10-13T00:42:36;11.40;99.90
14347;DHT22;7257;52.158;9.968;2022-10-13T00:43:00;11.40;99.90
14347;DHT22;7257;52.158;9.968;2022-10-13T00:43:23;11.40;99.90
14347;DHT22;7257;52.158;9.968;2022-10-13T00:43:52;11.40;99.90
14347;DHT22;7257;52.158;9.968;2022-10-13T00:44:57;11.40;99.90
14347;DHT22;7257;52.158;9.968;2022-10-13T00:45:25;11.40;99.90
14347;DHT22;7257;52.158;9.968;2022-10-13T00:45:47;11.40;99.90
14347;DHT22;7257;52.158;9.968;2022-10-13T00:46:10;11.40;99.90
14347;DHT22;7257;52.158;9.968;2022-10-13T00:46:33;11.40;99.90
14347;DHT22;7257;52.158;9.968;2022-10-13T00:46:55;11.40;99.90
14347;DHT22;7257;52.158;9.968;2022-10-13T00:47:16;11.40;99.90
14347;DHT22;7257;52.158;9.968;2022-10-13T00:47:40;11.40;99.90
14347;DHT22;7257;52.158;9.968;2022-10-13T00:48:02;11.40;99.90
14347;DHT22;7257;52.158;9.968;2022-10-13T00:48:29;11.40;99.90
14347;DHT22;7257;52.158;9.968;2022-10-13T00:48:51;11.40;99.90
14347;DHT22;7257;52.158;9.968;2022-10-13T00:49:13;11.40;99.90
14347;DHT22;7257;52.158;9.968;2022-10-13T00:49:35;11.40;99.90
14347;DHT22;7257;52.158;9.968;2022-10-13T00:49:56;11.40;99.90
14347;DHT22;7257;52.158;9.968;2022-10-13T00:50:21;11.40;99.90
14347;DHT22;7257;52.158;9.968;2022-10-13T00:50:43;11.40;99.90
14347;DHT22;7257;52.158;9.968;2022-10-13T00:51:05;11.40;99.90
14347;DHT22;7257;52.158;9.968;2022-10-13T00:51:31;11.40;99.90
14347;DHT22;7257;52.158;9.968;2022-10-13T00:51:52;11.40;99.90
14347;DHT22;7257;52.158;9.968;2022-10-13T00:52:14;11.40;99.90
14347;DHT22;7257;52.158;9.968;2022-10-13T00:52:38;11.40;99.90
14347;DHT22;7257;52.158;9.968;2022-10-13T00:53:02;11.40;99.90
14347;DHT22;7257;52.158;9.968;2022-10-13T00:53:27;11.40;99.90
14347;DHT22;7257;52.158;9.968;2022-10-13T00:53:50;11.40;99.90
14347;DHT22;7257;52.158;9.968;2022-10-13T00:54:15;11.40;99.90
14347;DHT22;7257;52.158;9.968;2022-10-13T00:54:37;11.40;99.90
14347;DHT22;7257;52.158;9.968;2022-10-13T00:54:59;11.40;99.90
14347;DHT22;7257;52.158;9.968;2022-10-13T00:55:24;11.40;99.90
14347;DHT22;7257;52.158;9.968;2022-10-13T00:55:46;11.40;99.90
14347;DHT22;7257;52.158;9.968;2022-10-13T00:56:10;11.40;99.90
14347;DHT22;7257;52.158;9.968;2022-10-13T00:56:34;11.40;99.90
14347;DHT22;7257;52.158;9.968;2022-10-13T00:56:56;11.40;99.90
14347;DHT22;7257;52.158;9.968;2022-10-13T00:57:18;11.50;99.90
14347;DHT22;7257;52.158;9.968;2022-10-13T00:57:43;11.50;99.90
14347;DHT22;7257;52.158;9.968;2022-10-13T00:58:07;11.40;99.90
14347;DHT22;7257;52.158;9.968;2022-10-13T00:58:30;11.50;99.90
14347;DHT22;7257;52.158;9.968;2022-10-13T00:58:52;11.40;99.90
14347;DHT22;7257;52.158;9.968;2022-10-13T00:59:19;11.50;99.90
14347;DHT22;7257;52.158;9.968;2022-10-13T00:59:42;11.50;99.90
14347;DHT22;7257;52.158;9.968;2022-10-13T01:00:04;11.50;99.90
14347;DHT22;7257;52.158;9.968;2022-10-13T01:00:27;11.50;99.90
14347;DHT22;7257;52.158;9.968;2022-10-13T01:00:50;11.50;99.90
14347;DHT22;7257;52.158;9.968;2022-10-13T01:01:13;11.50;99.90
14347;DHT22;7257;52.158;9.968;2022-10-13T01:01:34;11.50;99.90
14347;DHT22;7257;52.158;9.968;2022-10-13T01:01:56;11.50;99.90
14347;DHT22;7257;52.158;9.968;2022-10-13T01:02:20;11.50;98.50
14347;DHT22;7257;52.158;9.968;2022-10-13T01:02:42;11.50;99.90
14347;DHT22;7257;52.158;9.968;2022-10-13T01:03:03;11.50;99.90
14347;DHT22;7257;52.158;9.968;2022-10-13T01:03:25;11.50;99.90
14347;DHT22;7257;52.158;9.968;2022-10-13T01:03:47;11.50;95.20
14347;DHT22;7257;52.158;9.968;2022-10-13T01:04:08;11.50;99.90
14347;DHT22;7257;52.158;9.968;2022-10-13T01:04:35;11.50;99.90
14347;DHT22;7257;52.158;9.968;2022-10-13T01:04:57;11.50;99.90
14347;DHT22;7257;52.158;9.968;2022-10-13T01:05:20;11.50;99.90
14347;DHT22;7257;52.158;9.968;2022-10-13T01:05:42;11.50;99.90
14347;DHT22;7257;52.158;9.968;2022-10-13T01:06:05;11.50;99.90
14347;DHT22;7257;52.158;9.968;2022-10-13T01:06:26;11.50;99.90
14347;DHT22;7257;52.158;9.968;2022-10-13T01:06:48;11.50;99.90
14347;DHT22;7257;52.158;9.968;2022-10-13T01:07:11;11.40;99.90
14347;DHT22;7257;52.158;9.968;2022-10-13T01:07:33;11.40;99.90
14347;DHT22;7257;52.158;9.968;2022-10-13T01:07:55;11.40;99.90
14347;DHT22;7257;52.158;9.968;2022-10-13T01:08:18;11.40;99.90
14347;DHT22;7257;52.158;9.968;2022-10-13T01:08:40;11.40;99.90
14347;DHT22;7257;52.158;9.968;2022-10-13T01:09:01;11.40;99.90
14347;DHT22;7257;52.158;9.968;2022-10-13T01:09:26;11.40;99.90
14347;DHT22;7257;52.158;9.968;2022-10-13T01:09:54;11.40;99.90
14347;DHT22;7257;52.158;9.968;2022-10-13T01:10:16;11.40;99.90
14347;DHT22;7257;52.158;9.968;2022-10-13T01:10:51;11.40;99.90
14347;DHT22;7257;52.158;9.968;2022-10-13T01:12:16;11.40;99.90
14347;DHT22;7257;52.158;9.968;2022-10-13T01:12:48;11.40;99.90
14347;DHT22;7257;52.158;9.968;2022-10-13T01:13:15;11.40;99.90
14347;DHT22;7257;52.158;9.968;2022-10-13T01:13:41;11.40;99.90
14347;DHT22;7257;52.158;9.968;2022-10-13T01:14:14;11.40;99.90
14347;DHT22;7257;52.158;9.968;2022-10-13T01:14:43;11.40;99.90
14347;DHT22;7257;52.158;9.968;2022-10-13T01:15:10;11.40;99.90
14347;DHT22;7257;52.158;9.968;2022-10-13T01:15:38;11.40;99.90
14347;DHT22;7257;52.158;9.968;2022-10-13T01:16:07;11.40;99.90
14347;DHT22;7257;52.158;9.968;2022-10-13T01:16:34;11.40;99.90
14347;DHT22;7257;52.158;9.968;2022-10-13T01:17:03;11.40;99.90
14347;DHT22;7257;52.158;9.968;2022-10-13T01:17:31;11.40;99.90
14347;DHT22;7257;52.158;9.968;2022-10-13T01:18:02;11.40;99.90
14347;DHT22;7257;52.158;9.968;2022-10-13T01:18:30;11.40;99.90
14347;DHT22;7257;52.158;9.968;2022-10-13T01:19:03;11.40;99.90
14347;DHT22;7257;52.158;9.968;2022-10-13T01:19:50;11.40;99.90
14347;DHT22;7257;52.158;9.968;2022-10-13T01:20:32;11.40;99.90
14347;DHT22;7257;52.158;9.968;2022-10-13T01:21:47;11.40;99.90
14347;DHT22;7257;52.158;9.968;2022-10-13T01:22:19;11.40;99.90
14347;DHT22;7257;52.158;9.968;2022-10-13T01:22:59;11.40;99.90
14347;DHT22;7257;52.158;9.968;2022-10-13T01:24:34;11.40;99.90
14347;DHT22;7257;52.158;9.968;2022-10-13T01:25:02;11.40;99.90
14347;DHT22;7257;52.158;9.968;2022-10-13T01:25:42;11.40;99.90
14347;DHT22;7257;52.158;9.968;2022-10-13T01:26:16;11.40;99.90
14347;DHT22;7257;52.158;9.968;2022-10-13T01:28:17;11.40;98.40
14347;DHT22;7257;52.158;9.968;2022-10-13T01:30:04;11.30;99.90
14347;DHT22;7257;52.158;9.968;2022-10-13T01:30:25;11.30;99.90
14347;DHT22;7257;52.158;9.968;2022-10-13T01:30:51;11.40;94.80
14347;DHT22;7257;52.158;9.968;2022-10-13T01:31:19;11.40;99.90
14347;DHT22;7257;52.158;9.968;2022-10-13T01:31:45;11.40;99.90
14347;DHT22;7257;52.158;9.968;2022-10-13T01:32:10;11.40;99.90
14347;DHT22;7257;52.158;9.968;2022-10-13T01:32:47;11.40;99.90
14347;DHT22;7257;52.158;9.968;2022-10-13T01:33:19;11.40;99.90
14347;DHT22;7257;52.158;9.968;2022-10-13T01:33:47;11.40;99.90
14347;DHT22;7257;52.158;9.968;2022-10-13T01:34:17;11.40;99.90
14347;DHT22;7257;52.158;9.968;2022-10-13T01:34:45;11.40;99.90
14347;DHT22;7257;52.158;9.968;2022-10-13T01:35:10;11.40;99.90
14347;DHT22;7257;52.158;9.968;2022-10-13T01:35:42;11.40;99.90
14347;DHT22;7257;52.158;9.968;2022-10-13T01:36:14;11.40;99.90
14347;DHT22;7257;52.158;9.968;2022-10-13T01:36:45;11.30;99.90
14347;DHT22;7257;52.158;9.968;2022-10-13T01:37:12;11.40;99.90
14347;DHT22;7257;52.158;9.968;2022-10-13T01:37:43;11.30;99.90
14347;DHT22;7257;52.158;9.968;2022-10-13T01:38:10;11.30;99.90
14347;DHT22;7257;52.158;9.968;2022-10-13T01:38:38;11.30;99.90
14347;DHT22;7257;52.158;9.968;2022-10-13T01:39:06;11.30;99.90
14347;DHT22;7257;52.158;9.968;2022-10-13T01:39:35;11.30;99.90
14347;DHT22;7257;52.158;9.968;2022-10-13T01:40:04;11.30;99.90
14347;DHT22;7257;52.158;9.968;2022-10-13T01:40:29;11.30;99.90
14347;DHT22;7257;52.158;9.968;2022-10-13T01:40:58;11.30;99.90
14347;DHT22;7257;52.158;9.968;2022-10-13T01:41:26;11.30;99.90
14347;DHT22;7257;52.158;9.968;2022-10-13T01:41:52;11.30;99.90
14347;DHT22;7257;52.158;9.968;2022-10-13T01:42:15;11.30;99.90
14347;DHT22;7257;52.158;9.968;2022-10-13T01:42:42;11.30;99.90
14347;DHT22;7257;52.158;9.968;2022-10-13T01:43:09;11.30;99.90
14347;DHT22;7257;52.158;9.968;2022-10-13T01:43:34;11.30;99.90
14347;DHT22;7257;52.158;9.968;2022-10-13T01:44:00;11.30;99.90
14347;DHT22;7257;52.158;9.968;2022-10-13T01:44:28;11.30;99.90
14347;DHT22;7257;52.158;9.968;2022-10-13T01:44:55;11.30;99.90
14347;DHT22;7257;52.158;9.968;2022-10-13T01:45:22;11.30;99.90
14347;DHT22;7257;52.158;9.968;2022-10-13T01:45:47;11.30;99.90
14347;DHT22;7257;52.158;9.968;2022-10-13T01:46:13;11.30;99.90
14347;DHT22;7257;52.158;9.968;2022-10-13T01:46:37;11.30;99.90
14347;DHT22;7257;52.158;9.968;2022-10-13T01:47:00;11.30;99.90
14347;DHT22;7257;52.158;9.968;2022-10-13T01:47:22;11.30;99.90
14347;DHT22;7257;52.158;9.968;2022-10-13T01:47:45;11.30;99.90
14347;DHT22;7257;52.158;9.968;2022-10-13T01:48:08;11.30;99.90
14347;DHT22;7257;52.158;9.968;2022-10-13T01:48:32;11.30;99.90
14347;DHT22;7257;52.158;9.968;2022-10-13T01:48:55;11.30;99.90
14347;DHT22;7257;52.158;9.968;2022-10-13T01:49:21;11.30;99.90
14347;DHT22;7257;52.158;9.968;2022-10-13T01:49:44;11.30;99.90
14347;DHT22;7257;52.158;9.968;2022-10-13T01:50:10;11.30;99.90
14347;DHT22;7257;52.158;9.968;2022-10-13T01:50:31;11.30;99.90
14347;DHT22;7257;52.158;9.968;2022-10-13T01:50:54;11.30;99.90
14347;DHT22;7257;52.158;9.968;2022-10-13T01:51:18;11.30;99.90
14347;DHT22;7257;52.158;9.968;2022-10-13T01:51:43;11.30;99.90
14347;DHT22;7257;52.158;9.968;2022-10-13T01:52:07;11.20;99.90
14347;DHT22;7257;52.158;9.968;2022-10-13T01:52:32;11.20;99.90
14347;DHT22;7257;52.158;9.968;2022-10-13T01:52:55;11.30;99.90
14347;DHT22;7257;52.158;9.968;2022-10-13T01:53:17;11.20;99.90
14347;DHT22;7257;52.158;9.968;2022-10-13T01:53:40;11.20;99.90
14347;DHT22;7257;52.158;9.968;2022-10-13T01:54:02;11.30;99.90
14347;DHT22;7257;52.158;9.968;2022-10-13T01:54:23;11.20;97.40
14347;DHT22;7257;52.158;9.968;2022-10-13T01:54:47;11.10;99.90
14347;DHT22;7257;52.158;9.968;2022-10-13T01:55:10;11.20;98.30
14347;DHT22;7257;52.158;9.968;2022-10-13T01:55:36;11.20;99.90
14347;DHT22;7257;52.158;9.968;2022-10-13T01:55:58;11.20;99.80
14347;DHT22;7257;52.158;9.968;2022-10-13T01:56:19;11.30;99.90
14347;DHT22;7257;52.158;9.968;2022-10-13T01:56:40;11.20;99.90
14347;DHT22;7257;52.158;9.968;2022-10-13T01:57:02;11.20;99.90
14347;DHT22;7257;52.158;9.968;2022-10-13T01:57:29;11.30;99.90
14347;DHT22;7257;52.158;9.968;2022-10-13T01:57:51;11.20;99.90
14347;DHT22;7257;52.158;9.968;2022-10-13T01:58:11;11.10;99.90
14347;DHT22;7257;52.158;9.968;2022-10-13T01:58:34;11.20;99.90
14347;DHT22;7257;52.158;9.968;2022-10-13T01:59:00;11.30;99.90
14347;DHT22;7257;52.158;9.968;2022-10-13T01:59:26;11.20;99.90
14347;DHT22;7257;52.158;9.968;2022-10-13T01:59:49;11.20;99.90
14347;DHT22;7257;52.158;9.968;2022-10-13T02:00:14;11.20;99.90
14347;DHT22;7257;52.158;9.968;2022-10-13T02:00:41;11.20;99.90
14347;DHT22;7257;52.158;9.968;2022-10-13T02:01:27;11.20;99.90
14347;DHT22;7257;52.158;9.968;2022-10-13T02:01:57;11.20;99.70
14347;DHT22;7257;52.158;9.968;2022-10-13T02:02:25;11.20;99.90
14347;DHT22;7257;52.158;9.968;2022-10-13T02:02:58;11.10;99.90
14347;DHT22;7257;52.158;9.968;2022-10-13T02:03:25;11.10;99.90
14347;DHT22;7257;52.158;9.968;2022-10-13T02:03:56;11.20;99.90
14347;DHT22;7257;52.158;9.968;2022-10-13T02:04:26;11.10;99.90
14347;DHT22;7257;52.158;9.968;2022-10-13T02:04:54;11.10;99.90
14347;DHT22;7257;52.158;9.968;2022-10-13T02:05:27;11.10;99.90
14347;DHT22;7257;52.158;9.968;2022-10-13T02:05:56;11.00;99.90
14347;DHT22;7257;52.158;9.968;2022-10-13T02:06:23;11.10;99.90
14347;DHT22;7257;52.158;9.968;2022-10-13T02:06:52;11.10;99.90
14347;DHT22;7257;52.158;9.968;2022-10-13T02:07:19;11.10;99.90
14347;DHT22;7257;52.158;9.968;2022-10-13T02:07:45;11.10;99.90
14347;DHT22;7257;52.158;9.968;2022-10-13T02:08:11;11.10;99.90
14347;DHT22;7257;52.158;9.968;2022-10-13T02:08:39;11.10;99.90
14347;DHT22;7257;52.158;9.968;2022-10-13T02:09:09;11.10;99.90
14347;DHT22;7257;52.158;9.968;2022-10-13T02:09:34;10.90;99.90
14347;DHT22;7257;52.158;9.968;2022-10-13T02:10:04;11.10;99.90
14347;DHT22;7257;52.158;9.968;2022-10-13T02:10:32;11.10;99.90
14347;DHT22;7257;52.158;9.968;2022-10-13T02:10:59;10.90;99.90
14347;DHT22;7257;52.158;9.968;2022-10-13T02:11:21;10.90;99.90
14347;DHT22;7257;52.158;9.968;2022-10-13T02:11:47;11.10;99.90
14347;DHT22;7257;52.158;9.968;2022-10-13T02:12:12;11.10;99.90
14347;DHT22;7257;52.158;9.968;2022-10-13T02:12:38;11.10;99.90
14347;DHT22;7257;52.158;9.968;2022-10-13T02:13:02;11.10;99.90
14347;DHT22;7257;52.158;9.968;2022-10-13T02:13:27;11.10;99.90
14347;DHT22;7257;52.158;9.968;2022-10-13T02:13:53;11.10;99.90
14347;DHT22;7257;52.158;9.968;2022-10-13T02:14:20;11.10;99.90
14347;DHT22;7257;52.158;9.968;2022-10-13T02:14:42;11.00;99.90
14347;DHT22;7257;52.158;9.968;2022-10-13T02:15:08;11.10;99.90
14347;DHT22;7257;52.158;9.968;2022-10-13T02:15:36;11.10;99.90
14347;DHT22;7257;52.158;9.968;2022-10-13T02:16:00;11.10;99.90
14347;DHT22;7257;52.158;9.968;2022-10-13T02:16:21;11.10;99.90
14347;DHT22;7257;52.158;9.968;2022-10-13T02:16:44;11.10;99.90
14347;DHT22;7257;52.158;9.968;2022-10-13T02:17:06;11.00;99.90
14347;DHT22;7257;52.158;9.968;2022-10-13T02:17:27;11.00;99.90
14347;DHT22;7257;52.158;9.968;2022-10-13T02:17:50;11.10;99.90
14347;DHT22;7257;52.158;9.968;2022-10-13T02:18:13;10.90;99.90
14347;DHT22;7257;52.158;9.968;2022-10-13T02:18:36;11.10;99.90
14347;DHT22;7257;52.158;9.968;2022-10-13T02:18:57;10.90;99.90
14347;DHT22;7257;52.158;9.968;2022-10-13T02:19:19;11.10;99.90
14347;DHT22;7257;52.158;9.968;2022-10-13T02:19:40;11.10;99.90
14347;DHT22;7257;52.158;9.968;2022-10-13T02:20:04;11.10;99.90
14347;DHT22;7257;52.158;9.968;2022-10-13T02:20:27;11.10;99.90
14347;DHT22;7257;52.158;9.968;2022-10-13T02:20:49;11.00;99.90
14347;DHT22;7257;52.158;9.968;2022-10-13T02:21:10;10.90;99.90
14347;DHT22;7257;52.158;9.968;2022-10-13T02:21:31;11.10;99.90
14347;DHT22;7257;52.158;9.968;2022-10-13T02:21:53;11.10;99.90
14347;DHT22;7257;52.158;9.968;2022-10-13T02:22:17;11.10;99.90
14347;DHT22;7257;52.158;9.968;2022-10-13T02:22:42;11.00;99.90
14347;DHT22;7257;52.158;9.968;2022-10-13T02:23:09;11.10;99.90
14347;DHT22;7257;52.158;9.968;2022-10-13T02:23:31;11.10;99.90
14347;DHT22;7257;52.158;9.968;2022-10-13T02:23:53;10.90;99.90
14347;DHT22;7257;52.158;9.968;2022-10-13T02:24:14;10.90;99.90
14347;DHT22;7257;52.158;9.968;2022-10-13T02:24:37;10.90;99.90
14347;DHT22;7257;52.158;9.968;2022-10-13T02:25:01;10.90;99.90
14347;DHT22;7257;52.158;9.968;2022-10-13T02:25:23;11.10;99.90
14347;DHT22;7257;52.158;9.968;2022-10-13T02:25:46;10.90;99.90
14347;DHT22;7257;52.158;9.968;2022-10-13T02:26:08;10.90;99.90
14347;DHT22;7257;52.158;9.968;2022-10-13T02:26:30;11.10;99.90
14347;DHT22;7257;52.158;9.968;2022-10-13T02:26:52;11.10;99.90
14347;DHT22;7257;52.158;9.968;2022-10-13T02:27:15;10.90;99.90
14347;DHT22;7257;52.158;9.968;2022-10-13T02:27:36;11.10;99.90
14347;DHT22;7257;52.158;9.968;2022-10-13T02:27:58;11.10;99.90
14347;DHT22;7257;52.158;9.968;2022-10-13T02:28:20;10.90;99.90
14347;DHT22;7257;52.158;9.968;2022-10-13T02:28:42;11.10;99.90
14347;DHT22;7257;52.158;9.968;2022-10-13T02:29:07;10.90;99.90
14347;DHT22;7257;52.158;9.968;2022-10-13T02:29:29;10.90;99.90
14347;DHT22;7257;52.158;9.968;2022-10-13T02:29:52;11.10;99.90
14347;DHT22;7257;52.158;9.968;2022-10-13T02:30:26;10.90;99.90
14347;DHT22;7257;52.158;9.968;2022-10-13T02:30:48;11.10;99.90
14347;DHT22;7257;52.158;9.968;2022-10-13T02:31:09;11.10;99.90
14347;DHT22;7257;52.158;9.968;2022-10-13T02:31:30;11.10;99.90
14347;DHT22;7257;52.158;9.968;2022-10-13T02:31:52;11.10;99.90
14347;DHT22;7257;52.158;9.968;2022-10-13T02:32:14;10.90;99.90
14347;DHT22;7257;52.158;9.968;2022-10-13T02:32:35;10.90;99.90
14347;DHT22;7257;52.158;9.968;2022-10-13T02:32:55;10.90;93.20
14347;DHT22;7257;52.158;9.968;2022-10-13T02:33:17;10.90;99.80
14347;DHT22;7257;52.158;9.968;2022-10-13T02:33:39;10.90;89.30
14347;DHT22;7257;52.158;9.968;2022-10-13T02:34:00;10.90;79.90
14347;DHT22;7257;52.158;9.968;2022-10-13T02:34:21;11.00;80.80
14347;DHT22;7257;52.158;9.968;2022-10-13T02:34:42;10.90;83.90
14347;DHT22;7257;52.158;9.968;2022-10-13T02:35:07;10.90;81.00
14347;DHT22;7257;52.158;9.968;2022-10-13T02:35:28;10.90;84.90
14347;DHT22;7257;52.158;9.968;2022-10-13T02:35:49;10.90;83.70
14347;DHT22;7257;52.158;9.968;2022-10-13T02:36:10;10.90;85.50
14347;DHT22;7257;52.158;9.968;2022-10-13T02:36:32;10.90;84.40
14347;DHT22;7257;52.158;9.968;2022-10-13T02:36:53;10.90;83.10
14347;DHT22;7257;52.158;9.968;2022-10-13T02:37:14;10.90;84.30
14347;DHT22;7257;52.158;9.968;2022-10-13T02:37:35;10.90;83.70
14347;DHT22;7257;52.158;9.968;2022-10-13T02:37:56;10.90;82.60
14347;DHT22;7257;52.158;9.968;2022-10-13T02:38:17;10.90;85.00
14347;DHT22;7257;52.158;9.968;2022-10-13T02:38:38;11.00;87.70
14347;DHT22;7257;52.158;9.968;2022-10-13T02:38:59;10.90;88.80
14347;DHT22;7257;52.158;9.968;2022-10-13T02:39:20;10.90;82.10
14347;DHT22;7257;52.158;9.968;2022-10-13T02:39:42;10.90;87.00
14347;DHT22;7257;52.158;9.968;2022-10-13T02:40:06;10.90;94.10